Time;durP1;ratioP1;P1;durP2;ratioP2;P2;SDS_P1;SDS_P2;PMS_P1;PMS_P2;Temp;Humidity;BMP_temperature;BMP_pressure;BME280_temperature;BME280_humidity;BME280_pressure;Samples;Min_cycle;Max_cycle;Signal;HPM_P1;HPM_P2
2023/02/02 00:01:11;;;;;;;17.00;2.10;;;;;;;2.77;97.60;99510.42;106098;1265;22540;-54
2023/02/02 00:03:41;;;;;;;12.20;1.90;;;;;;;2.77;97.47;99506.41;106270;1265;24373;-56
2023/02/02 00:06:13;;;;;;;11.80;1.30;;;;;;;2.76;97.36;99503.98;106154;1268;25295;-54
2023/02/02 00:08:43;;;;;;;19.90;1.50;;;;;;;2.76;97.17;99504.06;106106;1275;22539;-56
2023/02/02 00:11:15;;;;;;;9.50;1.00;;;;;;;2.75;97.11;99498.17;106225;1265;22530;-55
2023/02/02 00:13:46;;;;;;;13.50;1.30;;;;;;;2.74;97.16;99505.45;106320;1279;24251;-57
2023/02/02 00:16:44;;;;;;;13.10;1.60;;;;;;;2.72;97.09;99508.12;106111;1277;22524;-56
2023/02/02 00:19:17;;;;;;;14.40;1.40;;;;;;;2.71;96.98;99511.45;105793;1284;24264;-57
2023/02/02 00:21:48;;;;;;;16.20;1.30;;;;;;;2.72;97.13;99509.15;105840;1284;23874;-57
2023/02/02 00:24:20;;;;;;;12.20;2.40;;;;;;;2.72;96.99;99501.27;106099;1273;22538;-58
2023/02/02 00:26:53;;;;;;;11.60;1.60;;;;;;;2.72;96.86;99502.61;106437;1276;23945;-57
2023/02/02 00:29:27;;;;;;;9.30;1.50;;;;;;;2.72;96.73;99508.77;106357;1271;22542;-54
2023/02/02 00:31:58;;;;;;;11.60;1.50;;;;;;;2.70;96.74;99511.43;106221;1279;25438;-54
2023/02/02 00:34:29;;;;;;;14.10;2.00;;;;;;;2.70;96.63;99506.94;106296;1275;22590;-58
2023/02/02 00:37:00;;;;;;;15.60;1.90;;;;;;;2.70;96.57;99517.63;106166;1273;24385;-55
2023/02/02 00:39:31;;;;;;;8.60;1.20;;;;;;;2.72;96.56;99518.14;106068;1279;22564;-55
2023/02/02 00:42:02;;;;;;;13.00;1.30;;;;;;;2.74;96.55;99519.23;106111;1273;25253;-57
2023/02/02 00:47:21;;;;;;;11.60;1.20;;;;;;;2.75;96.52;99527.14;106104;1279;25552;-55
2023/02/02 00:49:52;;;;;;;11.40;1.50;;;;;;;2.77;96.41;99531.13;106106;1279;22997;-57
2023/02/02 00:52:23;;;;;;;11.10;1.40;;;;;;;2.79;96.45;99532.33;106091;1263;22545;-59
2023/02/02 00:54:54;;;;;;;11.50;1.80;;;;;;;2.80;96.34;99531.03;106237;1266;22550;-55
2023/02/02 00:57:25;;;;;;;14.00;1.30;;;;;;;2.80;96.36;99521.96;106454;1272;23010;-54
2023/02/02 00:59:56;;;;;;;10.10;1.20;;;;;;;2.80;96.37;99524.23;106550;1274;22532;-57
2023/02/02 01:02:27;;;;;;;8.00;1.00;;;;;;;2.81;96.26;99533.98;106552;1269;24248;-56
2023/02/02 01:04:58;;;;;;;10.70;1.10;;;;;;;2.82;96.08;99528.80;106647;1274;22518;-57
2023/02/02 01:07:29;;;;;;;15.30;1.10;;;;;;;2.83;96.04;99530.14;106753;1262;22531;-57
2023/02/02 01:10:00;;;;;;;13.70;1.30;;;;;;;2.83;96.02;99527.45;106532;1272;22554;-54
2023/02/02 01:12:31;;;;;;;13.80;1.20;;;;;;;2.83;95.90;99531.08;106593;1274;25294;-57
2023/02/02 01:15:02;;;;;;;8.70;0.90;;;;;;;2.83;95.84;99529.41;106600;1274;25453;-55
2023/02/02 01:17:34;;;;;;;10.50;1.20;;;;;;;2.83;95.77;99528.31;106617;1274;22531;-57
2023/02/02 01:20:06;;;;;;;10.10;1.20;;;;;;;2.84;95.52;99530.98;106633;1260;25340;-57
2023/02/02 01:22:37;;;;;;;12.00;1.10;;;;;;;2.86;95.48;99533.51;106562;1266;23141;-57
2023/02/02 01:25:09;;;;;;;19.00;1.40;;;;;;;2.86;95.55;99530.65;106547;1274;22632;-53
2023/02/02 01:27:41;;;;;;;9.40;1.30;;;;;;;2.86;95.49;99531.52;106590;1267;22542;-56
2023/02/02 01:30:13;;;;;;;5.70;0.90;;;;;;;2.86;95.32;99536.79;106568;1267;23118;-58
2023/02/02 01:32:44;;;;;;;17.80;1.40;;;;;;;2.88;95.00;99533.67;106630;1266;25236;-57
2023/02/02 01:35:15;;;;;;;15.00;1.40;;;;;;;2.90;94.88;99532.90;106534;1269;23013;-54
2023/02/02 01:37:46;;;;;;;11.90;1.10;;;;;;;2.90;94.79;99529.98;106663;1274;26569;-56
2023/02/02 01:40:17;;;;;;;15.70;1.30;;;;;;;2.92;94.63;99532.29;106534;1268;22595;-55
2023/02/02 01:42:48;;;;;;;11.00;1.10;;;;;;;2.92;94.56;99526.19;106485;1272;22592;-55
2023/02/02 01:45:24;;;;;;;15.20;1.60;;;;;;;2.93;94.58;99528.98;106721;1270;22551;-57
2023/02/02 01:47:58;;;;;;;9.60;1.00;;;;;;;2.94;94.59;99522.11;106680;1265;22527;-59
2023/02/02 01:50:34;;;;;;;18.10;1.50;;;;;;;2.95;94.37;99522.81;106539;1260;22906;-53
2023/02/02 01:53:07;;;;;;;11.60;1.20;;;;;;;2.96;94.31;99520.72;106673;1274;22526;-58
2023/02/02 01:55:41;;;;;;;14.90;1.00;;;;;;;2.96;94.50;99511.16;106591;1274;22527;-57
2023/02/02 01:58:14;;;;;;;11.80;1.30;;;;;;;2.97;94.38;99514.23;106591;1274;22523;-57
2023/02/02 02:00:46;;;;;;;13.60;0.90;;;;;;;2.98;94.37;99511.05;106554;1259;25623;-56
2023/02/02 02:03:20;;;;;;;10.90;1.00;;;;;;;2.97;94.34;99509.09;106680;1274;22577;-54
2023/02/02 02:05:54;;;;;;;7.90;0.90;;;;;;;2.98;93.90;99507.81;106594;1266;24245;-54
2023/02/02 02:08:30;;;;;;;12.80;0.90;;;;;;;2.99;93.75;99509.60;106520;1268;24339;-55
2023/02/02 02:11:01;;;;;;;11.90;1.20;;;;;;;3.00;93.74;99513.59;106616;1274;22523;-55
2023/02/02 02:16:26;;;;;;;12.60;1.00;;;;;;;3.03;93.37;99515.36;106078;1280;23168;-57
2023/02/02 02:19:09;;;;;;;12.70;1.00;;;;;;;3.05;93.34;99514.11;106133;1275;22520;-55
2023/02/02 02:28:32;;;;;;;9.90;0.60;;;;;;;3.07;92.74;99519.16;105995;1280;22549;-56
2023/02/02 02:31:31;;;;;;;8.90;0.70;;;;;;;3.09;92.87;99506.87;106188;1274;22544;-58
2023/02/02 02:34:10;;;;;;;10.30;0.90;;;;;;;3.10;92.70;99504.73;106227;1272;22537;-55
2023/02/02 02:36:48;;;;;;;8.50;0.90;;;;;;;3.10;92.51;99501.98;106111;1271;22533;-56
2023/02/02 02:39:27;;;;;;;10.10;0.80;;;;;;;3.11;92.64;99503.64;106071;1278;22528;-55
2023/02/02 02:42:04;;;;;;;8.80;0.70;;;;;;;3.12;92.67;99508.58;106057;1271;22533;-54
2023/02/02 02:44:36;;;;;;;11.90;0.80;;;;;;;3.13;92.60;99512.72;106114;1277;22568;-57
2023/02/02 02:47:08;;;;;;;9.20;0.80;;;;;;;3.14;92.48;99512.13;106120;1270;26555;-59
2023/02/02 02:49:45;;;;;;;9.00;0.80;;;;;;;3.15;92.73;99513.60;106163;1280;22530;-58
2023/02/02 02:52:16;;;;;;;11.90;0.90;;;;;;;3.16;92.61;99509.39;106247;1278;25560;-57
2023/02/02 02:54:50;;;;;;;10.50;0.90;;;;;;;3.17;92.47;99509.91;106394;1274;22587;-57
2023/02/02 02:57:49;;;;;;;8.20;0.90;;;;;;;3.18;92.57;99504.90;106680;1274;24512;-57
2023/02/02 03:00:39;;;;;;;7.30;0.70;;;;;;;3.19;92.28;99498.95;106473;1272;22523;-55
2023/02/02 03:03:22;;;;;;;9.00;0.90;;;;;;;3.21;92.20;99496.85;106670;1267;22549;-57
2023/02/02 03:06:01;;;;;;;15.20;1.30;;;;;;;3.22;92.05;99492.09;106687;1272;25453;-56
2023/02/02 03:08:37;;;;;;;6.00;0.70;;;;;;;3.22;91.95;99488.30;106618;1273;22523;-55
2023/02/02 03:11:11;;;;;;;10.60;1.00;;;;;;;3.23;91.91;99484.93;106546;1267;24244;-58
2023/02/02 03:13:42;;;;;;;12.10;0.80;;;;;;;3.24;91.98;99486.70;106749;1267;22523;-57
2023/02/02 03:16:15;;;;;;;14.00;1.20;;;;;;;3.25;91.79;99485.97;106648;1274;25443;-55
2023/02/02 03:18:46;;;;;;;10.70;1.20;;;;;;;3.26;91.83;99480.44;106562;1274;24269;-55
2023/02/02 03:21:17;;;;;;;13.30;0.80;;;;;;;3.26;91.55;99482.72;106523;1274;22544;-57
2023/02/02 03:23:48;;;;;;;11.00;0.90;;;;;;;3.27;91.29;99475.18;106590;1260;25484;-56
2023/02/02 03:26:19;;;;;;;13.30;0.90;;;;;;;3.29;91.24;99474.09;106615;1267;22550;-56
2023/02/02 03:28:53;;;;;;;8.30;1.10;;;;;;;3.31;91.01;99465.52;106683;1274;24329;-56
2023/02/02 03:31:26;;;;;;;11.10;1.50;;;;;;;3.32;91.02;99452.88;107000;1269;22529;-59
2023/02/02 03:33:57;;;;;;;7.50;1.00;;;;;;;3.32;91.00;99447.66;106716;1272;25510;-58
2023/02/02 03:36:29;;;;;;;22.20;1.30;;;;;;;3.33;90.39;99444.48;106582;1267;26668;-58
2023/02/02 03:38:59;;;;;;;9.30;0.70;;;;;;;3.34;90.27;99435.77;106667;1274;23942;-54
2023/02/02 03:41:31;;;;;;;13.70;1.90;;;;;;;3.36;90.06;99436.04;106618;1267;24257;-56
2023/02/02 03:44:01;;;;;;;11.90;0.60;;;;;;;3.36;89.78;99431.13;106645;1274;22553;-54
2023/02/02 03:46:32;;;;;;;10.50;0.70;;;;;;;3.38;89.78;99432.71;106557;1274;24387;-55
2023/02/02 03:49:03;;;;;;;11.00;0.90;;;;;;;3.39;89.25;99429.69;106578;1274;24398;-57
2023/02/02 03:51:35;;;;;;;20.30;1.30;;;;;;;3.40;89.39;99425.40;106577;1269;24227;-58
2023/02/02 03:54:06;;;;;;;8.30;0.50;;;;;;;3.40;89.63;99423.10;106539;1270;22536;-56
2023/02/02 03:56:37;;;;;;;7.10;0.80;;;;;;;3.40;88.93;99417.67;106544;1267;22533;-56
2023/02/02 03:59:08;;;;;;;6.50;1.00;;;;;;;3.39;88.80;99413.83;106460;1266;224179;-55
2023/02/02 04:01:39;;;;;;;7.40;0.80;;;;;;;3.39;88.44;99416.39;106552;1274;22531;-55
2023/02/02 04:04:09;;;;;;;11.40;1.50;;;;;;;3.39;88.50;99414.08;106609;1255;22534;-57
2023/02/02 04:06:40;;;;;;;5.90;0.70;;;;;;;3.40;88.78;99411.14;106545;1261;22753;-58
2023/02/02 04:09:11;;;;;;;8.70;0.70;;;;;;;3.39;88.75;99412.89;106560;1274;24554;-55
2023/02/02 04:11:42;;;;;;;9.00;0.80;;;;;;;3.40;88.33;99412.85;106573;1267;25309;-58
2023/02/02 04:14:13;;;;;;;16.50;1.10;;;;;;;3.42;87.96;99413.80;106559;1263;22538;-56
2023/02/02 04:16:43;;;;;;;7.80;0.80;;;;;;;3.45;88.08;99406.99;106606;1269;24250;-59
2023/02/02 04:19:14;;;;;;;10.40;0.60;;;;;;;3.47;88.35;99408.12;106561;1269;22534;-57
2023/02/02 04:21:45;;;;;;;9.40;0.80;;;;;;;3.48;87.93;99406.57;106515;1274;25334;-55
2023/02/02 04:24:17;;;;;;;10.60;0.80;;;;;;;3.50;88.06;99405.55;106536;1272;22535;-57
2023/02/02 04:26:47;;;;;;;12.40;0.80;;;;;;;3.51;88.07;99403.52;106660;1274;23106;-57
2023/02/02 04:29:18;;;;;;;11.30;0.80;;;;;;;3.53;87.90;99410.34;106580;1274;22520;-57
2023/02/02 04:31:49;;;;;;;7.60;0.70;;;;;;;3.54;87.78;99398.61;106734;1274;22527;-55
2023/02/02 04:34:20;;;;;;;9.90;0.80;;;;;;;3.55;88.10;99396.92;106577;1274;22576;-57
2023/02/02 04:36:51;;;;;;;14.80;1.10;;;;;;;3.55;87.66;99398.24;106757;1269;22524;-57
2023/02/02 04:39:22;;;;;;;7.90;0.80;;;;;;;3.57;87.58;99397.73;106885;1272;24352;-58
2023/02/02 04:41:53;;;;;;;7.70;0.70;;;;;;;3.58;87.32;99400.58;106537;1274;22526;-55
2023/02/02 04:44:24;;;;;;;7.80;0.70;;;;;;;3.60;86.91;99396.17;106533;1267;22534;-57
2023/02/02 04:46:54;;;;;;;9.40;1.60;;;;;;;3.62;87.04;99402.27;106569;1274;25240;-58
2023/02/02 04:49:25;;;;;;;6.60;0.60;;;;;;;3.64;86.59;99406.20;106554;1272;22536;-58
2023/02/02 04:51:56;;;;;;;9.40;1.10;;;;;;;3.66;86.85;99410.73;106544;1263;24259;-55
2023/02/02 04:54:27;;;;;;;14.20;0.80;;;;;;;3.68;87.00;99400.85;106564;1274;24240;-57
2023/02/02 04:56:58;;;;;;;8.70;0.80;;;;;;;3.68;87.10;99397.70;106708;1265;25227;-56
2023/02/02 04:59:31;;;;;;;5.30;0.70;;;;;;;3.68;86.46;99395.94;106556;1271;22747;-55
2023/02/02 05:02:03;;;;;;;7.40;1.00;;;;;;;3.69;86.63;99394.79;106555;1274;25357;-55
2023/02/02 05:04:34;;;;;;;9.90;0.70;;;;;;;3.70;86.73;99388.59;106814;1274;22573;-58
2023/02/02 05:07:05;;;;;;;10.80;0.80;;;;;;;3.72;86.68;99388.23;106587;1266;22567;-55
2023/02/02 05:09:35;;;;;;;6.40;0.60;;;;;;;3.72;86.97;99390.82;106528;1273;22527;-59
2023/02/02 05:12:07;;;;;;;11.50;1.40;;;;;;;3.72;86.63;99391.61;106549;1274;22527;-59
2023/02/02 05:14:38;;;;;;;11.70;0.80;;;;;;;3.73;86.49;99395.91;106527;1274;22995;-56
2023/02/02 05:17:08;;;;;;;9.30;0.70;;;;;;;3.73;86.20;99393.77;106543;1273;25410;-57
2023/02/02 05:19:39;;;;;;;7.00;0.80;;;;;;;3.75;85.99;99399.06;106610;1267;22599;-57
2023/02/02 05:22:10;;;;;;;6.60;0.90;;;;;;;3.77;85.82;99400.86;106562;1266;24261;-57
2023/02/02 05:24:41;;;;;;;11.00;0.90;;;;;;;3.80;85.57;99403.29;106592;1266;22945;-59
2023/02/02 05:27:12;;;;;;;11.70;1.30;;;;;;;3.82;85.63;99398.09;106693;1272;24275;-59
2023/02/02 05:29:43;;;;;;;13.00;1.20;;;;;;;3.83;85.94;99399.13;106523;1269;25344;-57
2023/02/02 05:32:14;;;;;;;10.50;1.70;;;;;;;3.84;85.75;99405.04;106538;1271;25341;-55
2023/02/02 05:34:45;;;;;;;9.30;1.10;;;;;;;3.84;85.49;99410.92;106600;1273;22531;-58
2023/02/02 05:37:16;;;;;;;13.30;1.00;;;;;;;3.86;85.68;99404.80;106509;1254;24229;-58
2023/02/02 05:39:48;;;;;;;8.20;1.10;;;;;;;3.86;85.47;99408.00;106535;1260;22544;-58
2023/02/02 05:42:19;;;;;;;7.60;0.70;;;;;;;3.87;85.58;99410.17;107780;1269;22678;-59
2023/02/02 05:44:50;;;;;;;10.50;0.70;;;;;;;3.89;85.45;99413.43;106381;1273;22688;-56
2023/02/02 05:47:21;;;;;;;10.90;0.70;;;;;;;3.89;85.31;99410.95;106476;1266;22531;-57
2023/02/02 05:49:52;;;;;;;10.80;1.10;;;;;;;3.91;85.39;99417.30;106686;1257;23644;-59
2023/02/02 05:52:25;;;;;;;6.00;0.50;;;;;;;3.91;85.81;99414.30;107892;1267;24269;-60
2023/02/02 05:54:56;;;;;;;12.50;1.00;;;;;;;3.90;86.18;99419.39;106462;1274;25802;-58
2023/02/02 05:57:27;;;;;;;10.00;1.00;;;;;;;3.88;86.08;99422.36;106603;1259;22551;-58
2023/02/02 05:59:58;;;;;;;14.50;1.10;;;;;;;3.87;86.35;99421.23;106746;1267;22523;-58
2023/02/02 06:02:29;;;;;;;11.60;0.80;;;;;;;3.85;86.65;99422.01;106578;1259;22576;-59
2023/02/02 06:05:00;;;;;;;9.60;1.10;;;;;;;3.82;86.67;99417.33;106598;1274;24282;-58
2023/02/02 06:07:31;;;;;;;12.70;1.10;;;;;;;3.81;86.86;99426.83;106635;1267;23025;-58
2023/02/02 06:10:02;;;;;;;6.10;0.80;;;;;;;3.79;86.84;99428.02;106575;1273;22538;-58
2023/02/02 06:12:33;;;;;;;12.90;1.10;;;;;;;3.78;86.84;99427.95;106562;1274;22566;-57
2023/02/02 06:15:04;;;;;;;6.40;1.00;;;;;;;3.78;87.07;99432.46;106417;1270;25352;-57
2023/02/02 06:17:35;;;;;;;8.70;1.40;;;;;;;3.76;87.28;99437.83;106536;1260;25392;-58
2023/02/02 06:20:07;;;;;;;8.10;0.80;;;;;;;3.75;87.58;99443.23;106717;1274;24258;-58
2023/02/02 06:22:38;;;;;;;9.70;0.90;;;;;;;3.72;87.71;99448.14;106668;1274;23023;-58
2023/02/02 06:25:10;;;;;;;12.60;0.90;;;;;;;3.72;87.50;99449.09;106581;1271;22664;-59
2023/02/02 06:27:44;;;;;;;8.80;0.80;;;;;;;3.72;87.81;99447.74;106669;1274;22527;-59
2023/02/02 06:30:16;;;;;;;10.70;1.00;;;;;;;3.72;87.88;99455.19;106563;1273;25287;-59
2023/02/02 06:32:47;;;;;;;7.10;0.80;;;;;;;3.70;88.10;99465.44;106681;1272;22525;-59
2023/02/02 06:35:18;;;;;;;9.30;1.20;;;;;;;3.68;88.27;99467.30;106682;1267;24269;-59
2023/02/02 06:37:49;;;;;;;10.80;1.10;;;;;;;3.67;88.21;99473.65;106630;1274;22885;-59
2023/02/02 06:40:21;;;;;;;9.40;1.30;;;;;;;3.67;88.17;99476.17;106722;1259;26202;-61
2023/02/02 06:42:57;;;;;;;8.80;1.10;;;;;;;3.66;88.13;99478.79;106717;1274;22537;-59
2023/02/02 06:45:29;;;;;;;7.50;1.20;;;;;;;3.66;88.35;99479.94;106794;1274;27025;-60
2023/02/02 06:48:02;;;;;;;5.10;0.90;;;;;;;3.65;88.44;99482.34;106717;1263;23016;-59
2023/02/02 06:50:33;;;;;;;7.90;1.00;;;;;;;3.64;88.56;99491.85;106629;1267;24238;-61
2023/02/02 06:53:05;;;;;;;8.20;0.80;;;;;;;3.63;88.69;99493.05;106561;1274;25243;-58
2023/02/02 06:55:36;;;;;;;11.10;0.80;;;;;;;3.62;88.80;99497.75;106732;1274;24236;-60
2023/02/02 06:58:07;;;;;;;13.30;1.00;;;;;;;3.61;88.73;99501.80;106602;1273;25347;-59
2023/02/02 07:00:37;;;;;;;6.90;0.70;;;;;;;3.61;88.80;99505.44;106688;1260;25419;-59
2023/02/02 07:03:08;;;;;;;6.80;1.20;;;;;;;3.60;88.85;99501.27;106544;1273;24201;-60
2023/02/02 07:05:40;;;;;;;9.30;0.90;;;;;;;3.60;88.76;99506.56;106602;1273;22514;-59
2023/02/02 07:08:11;;;;;;;5.90;0.80;;;;;;;3.60;88.89;99511.08;106785;1268;25203;-60
2023/02/02 07:10:43;;;;;;;6.60;0.60;;;;;;;3.59;88.81;99516.68;106590;1267;22536;-60
2023/02/02 07:13:14;;;;;;;7.00;0.80;;;;;;;3.59;88.70;99508.56;106768;1259;25620;-61
2023/02/02 07:15:44;;;;;;;4.90;0.70;;;;;;;3.61;88.52;99514.80;106545;1266;24350;-59
2023/02/02 07:18:16;;;;;;;8.80;0.80;;;;;;;3.63;88.67;99520.51;106543;1274;25373;-60
2023/02/02 07:20:46;;;;;;;7.30;0.70;;;;;;;3.64;88.38;99522.52;106542;1264;22653;-60
2023/02/02 07:23:17;;;;;;;4.10;0.50;;;;;;;3.66;88.45;99531.17;106605;1267;22527;-59
2023/02/02 07:25:48;;;;;;;7.20;0.90;;;;;;;3.68;88.44;99527.73;106564;1274;25644;-61
2023/02/02 07:28:19;;;;;;;6.10;0.80;;;;;;;3.70;88.33;99537.14;106527;1274;22527;-61
2023/02/02 07:30:50;;;;;;;11.10;0.70;;;;;;;3.72;88.04;99541.86;106608;1267;24253;-60
2023/02/02 07:33:21;;;;;;;6.40;0.70;;;;;;;3.74;88.23;99546.29;106621;1274;24380;-60
2023/02/02 07:35:52;;;;;;;7.60;0.50;;;;;;;3.75;87.55;99561.16;106541;1273;22534;-59
2023/02/02 07:38:23;;;;;;;5.50;0.70;;;;;;;3.77;87.47;99548.15;106595;1260;22529;-60
2023/02/02 07:40:54;;;;;;;8.80;0.50;;;;;;;3.77;87.74;99556.96;106663;1274;24217;-61
2023/02/02 07:43:26;;;;;;;6.70;0.50;;;;;;;3.78;87.74;99549.45;106693;1274;24348;-59
2023/02/02 07:46:00;;;;;;;4.50;0.40;;;;;;;3.78;87.77;99563.97;106666;1270;24228;-61
2023/02/02 07:48:32;;;;;;;5.40;0.50;;;;;;;3.78;87.85;99560.56;106526;1274;24240;-60
2023/02/02 07:51:04;;;;;;;6.70;0.70;;;;;;;3.79;87.95;99565.98;106642;1274;25428;-60
2023/02/02 07:53:36;;;;;;;6.10;0.70;;;;;;;3.79;88.27;99569.91;106624;1257;24314;-60
2023/02/02 07:56:13;;;;;;;4.60;0.40;;;;;;;3.78;88.37;99566.48;106666;1274;22536;-60
2023/02/02 07:58:45;;;;;;;4.60;0.80;;;;;;;3.78;88.30;99579.09;106742;1274;24240;-61
2023/02/02 08:01:18;;;;;;;3.60;0.60;;;;;;;3.78;88.16;99580.92;106701;1274;24379;-60
2023/02/02 08:03:50;;;;;;;3.60;0.50;;;;;;;3.79;88.16;99577.07;106628;1274;22542;-60
2023/02/02 08:06:23;;;;;;;10.00;0.50;;;;;;;3.80;87.99;99581.45;106623;1268;22555;-60
2023/02/02 08:08:54;;;;;;;7.20;0.80;;;;;;;3.83;87.82;99592.50;106605;1274;25341;-60
2023/02/02 08:11:27;;;;;;;5.80;0.70;;;;;;;3.86;87.96;99594.11;106793;1274;22533;-59
2023/02/02 08:14:00;;;;;;;8.80;0.70;;;;;;;3.89;88.00;99598.56;106820;1274;22608;-60
2023/02/02 08:16:32;;;;;;;9.00;1.00;;;;;;;3.92;87.93;99610.70;107073;1269;22566;-59
2023/02/02 08:19:03;;;;;;;6.40;0.70;;;;;;;3.94;88.12;99617.34;106859;1259;22574;-60
2023/02/02 08:21:35;;;;;;;6.60;0.60;;;;;;;3.95;88.27;99623.85;106769;1270;24152;-60
2023/02/02 08:24:07;;;;;;;6.70;1.20;;;;;;;3.95;88.43;99632.11;106682;1260;22775;-60
2023/02/02 08:26:38;;;;;;;7.10;0.60;;;;;;;3.96;88.67;99625.80;106674;1260;22546;-59
2023/02/02 08:29:10;;;;;;;4.50;0.40;;;;;;;3.97;88.33;99639.89;106678;1267;24274;-60
2023/02/02 08:31:41;;;;;;;9.90;0.90;;;;;;;3.96;88.36;99639.42;106601;1274;25364;-60
2023/02/02 08:34:13;;;;;;;7.70;0.60;;;;;;;3.96;88.44;99654.67;106524;1260;22676;-60
2023/02/02 08:36:44;;;;;;;5.50;0.70;;;;;;;3.95;88.77;99660.21;106583;1274;23289;-60
2023/02/02 08:39:15;;;;;;;5.70;0.50;;;;;;;3.93;89.07;99687.98;106602;1274;23776;-60
2023/02/02 08:41:47;;;;;;;7.20;0.60;;;;;;;3.88;89.76;99683.60;106501;1270;22730;-60
2023/02/02 08:44:18;;;;;;;10.70;1.00;;;;;;;3.81;90.38;99684.45;106746;1274;25347;-59
2023/02/02 08:46:49;;;;;;;4.80;0.50;;;;;;;3.71;91.14;99698.98;106714;1274;22531;-56
2023/02/02 08:49:20;;;;;;;5.80;0.50;;;;;;;3.61;92.08;99693.73;106572;1269;22586;-58
2023/02/02 08:51:50;;;;;;;8.90;0.70;;;;;;;3.55;91.89;99703.01;106764;1259;22530;-60
2023/02/02 08:54:21;;;;;;;5.90;0.50;;;;;;;3.52;92.42;99701.61;106784;1269;24257;-60
2023/02/02 08:56:52;;;;;;;7.40;0.70;;;;;;;3.52;92.73;99698.55;106723;1274;22636;-62
2023/02/02 08:59:23;;;;;;;4.80;0.50;;;;;;;3.53;92.56;99700.23;106562;1274;24417;-59
2023/02/02 09:01:54;;;;;;;5.50;0.40;;;;;;;3.58;92.35;99708.52;106626;1274;22523;-60
2023/02/02 09:04:25;;;;;;;6.10;0.50;;;;;;;3.63;92.08;99721.89;106688;1271;22524;-59
2023/02/02 09:06:56;;;;;;;8.10;0.60;;;;;;;3.70;91.89;99715.85;106783;1260;24261;-59
2023/02/02 09:09:27;;;;;;;6.10;0.80;;;;;;;3.76;91.47;99718.64;106652;1274;25300;-59
2023/02/02 09:11:58;;;;;;;2.40;0.30;;;;;;;3.80;90.67;99723.63;106753;1260;24278;-60
2023/02/02 09:14:30;;;;;;;3.70;0.30;;;;;;;3.84;89.80;99727.43;106772;1261;23007;-60
2023/02/02 09:17:01;;;;;;;4.90;0.80;;;;;;;3.87;89.86;99732.14;106773;1274;22513;-63
2023/02/02 09:19:32;;;;;;;7.00;0.40;;;;;;;3.90;89.34;99744.20;106593;1270;22541;-60
2023/02/02 09:22:02;;;;;;;5.20;0.50;;;;;;;3.93;88.97;99739.19;106655;1259;24304;-60
2023/02/02 09:24:33;;;;;;;5.60;0.30;;;;;;;3.95;87.60;99762.80;106663;1274;25340;-59
2023/02/02 09:27:04;;;;;;;3.40;0.40;;;;;;;3.93;87.95;99769.30;106664;1262;22540;-60
2023/02/02 09:29:35;;;;;;;4.20;0.30;;;;;;;3.91;88.41;99768.92;106593;1274;24276;-60
2023/02/02 09:32:06;;;;;;;5.10;0.50;;;;;;;3.84;88.67;99783.98;106639;1267;22782;-59
2023/02/02 09:34:37;;;;;;;5.40;0.40;;;;;;;3.73;89.05;99782.71;106686;1274;22536;-62
2023/02/02 09:37:08;;;;;;;5.70;0.50;;;;;;;3.60;89.56;99791.08;106545;1274;23174;-59
2023/02/02 09:39:39;;;;;;;8.70;0.40;;;;;;;3.49;90.07;99788.77;106608;1269;22635;-57
2023/02/02 09:42:49;;;;;;;4.80;0.60;;;;;;;3.41;90.69;99790.10;106568;1260;22614;-59
2023/02/02 09:45:26;;;;;;;3.20;0.30;;;;;;;3.36;90.21;99808.65;106267;1274;25399;-60
2023/02/02 09:48:05;;;;;;;8.70;0.80;;;;;;;3.31;90.16;99801.69;106142;1281;22537;-59
2023/02/02 09:50:45;;;;;;;3.50;0.30;;;;;;;3.28;90.80;99794.52;106074;1277;21708;-59
2023/02/02 09:53:23;;;;;;;6.20;0.40;;;;;;;3.28;90.94;99791.22;106107;1267;22546;-60
2023/02/02 09:55:58;;;;;;;4.10;0.30;;;;;;;3.29;91.05;99800.73;106275;1281;23333;-57
2023/02/02 09:58:34;;;;;;;6.10;0.50;;;;;;;3.33;91.34;99808.89;106057;1278;25380;-58
2023/02/02 10:01:12;;;;;;;2.60;0.40;;;;;;;3.39;90.83;99810.14;106111;1280;24358;-59
2023/02/02 10:03:58;;;;;;;2.30;0.50;;;;;;;3.44;90.31;99827.38;106055;1277;22667;-58
2023/02/02 10:06:35;;;;;;;3.00;0.40;;;;;;;3.47;90.65;99812.38;106088;1280;22683;-58
2023/02/02 10:09:22;;;;;;;7.40;0.30;;;;;;;3.50;89.74;99818.00;106091;1281;22558;-61
2023/02/02 10:11:59;;;;;;;6.20;0.40;;;;;;;3.49;89.63;99815.33;106221;1278;25446;-58
2023/02/02 10:14:35;;;;;;;4.00;0.60;;;;;;;3.48;90.13;99812.42;106190;1281;24375;-59
2023/02/02 10:17:21;;;;;;;3.50;0.40;;;;;;;3.50;90.14;99819.16;106041;1281;23035;-59
2023/02/02 10:20:02;;;;;;;4.70;0.70;;;;;;;3.53;90.13;99821.65;106043;1280;22533;-61
2023/02/02 10:22:33;;;;;;;;;;;;;;;3.56;89.85;99821.02;106431;1275;22508;-59
2023/02/02 10:25:05;;;;;;;7.80;0.70;;;;;;;3.60;89.84;99825.95;106515;1275;24266;-57
2023/02/02 10:27:39;;;;;;;3.60;0.40;;;;;;;3.66;89.75;99838.83;106593;1274;24286;-64
2023/02/02 10:30:19;;;;;;;7.60;0.80;;;;;;;3.71;89.61;99828.83;106816;1275;22664;-56
2023/02/02 10:33:02;;;;;;;6.60;0.60;;;;;;;3.72;89.28;99825.57;106633;1272;25339;-58
2023/02/02 10:35:42;;;;;;;6.30;1.30;;;;;;;3.71;88.83;99831.75;106496;1267;22568;-57
2023/02/02 10:38:24;;;;;;;8.00;1.10;;;;;;;3.75;89.16;99819.16;106612;1275;22523;-58
2023/02/02 10:41:02;;;;;;;3.60;0.40;;;;;;;3.81;89.24;99820.54;106572;1275;24287;-58
2023/02/02 10:43:53;;;;;;;5.80;0.50;;;;;;;3.86;89.16;99827.23;106872;1275;22865;-54
2023/02/02 10:46:24;;;;;;;;;;;;;;;3.94;89.10;99839.22;106470;1259;25294;-54
2023/02/02 10:49:11;;;;;;;6.60;0.60;;;;;;;4.03;89.86;99841.58;106518;1275;22530;-54
2023/02/02 10:51:45;;;;;;;5.10;0.70;;;;;;;4.14;89.65;99850.11;106503;1268;22571;-55
2023/02/02 10:54:30;;;;;;;4.10;0.50;;;;;;;4.18;89.41;99851.28;106663;1272;22523;-57
2023/02/02 10:57:04;;;;;;;5.70;0.60;;;;;;;4.19;88.75;99858.14;106776;1259;25252;-58
2023/02/02 10:59:43;;;;;;;3.00;0.60;;;;;;;4.20;88.71;99865.42;106813;1259;25500;-56
2023/02/02 11:02:14;;;;;;;3.90;0.60;;;;;;;4.23;88.76;99865.56;106717;1260;24244;-54
2023/02/02 11:07:35;;;;;;;3.50;0.50;;;;;;;4.32;88.71;99874.34;106641;1274;25386;-54
2023/02/02 11:10:07;;;;;;;10.20;0.70;;;;;;;4.35;88.35;99884.03;106629;1274;22527;-55
2023/02/02 11:12:45;;;;;;;7.70;0.50;;;;;;;4.36;88.13;99892.14;106561;1274;22535;-56
2023/02/02 11:15:28;;;;;;;5.20;0.60;;;;;;;4.39;88.23;99891.48;106721;1274;23067;-60
2023/02/02 11:18:15;;;;;;;9.70;0.60;;;;;;;4.44;87.74;99888.85;106604;1267;22524;-57
2023/02/02 11:20:46;;;;;;;7.00;0.50;;;;;;;4.52;87.74;99900.30;106700;1262;22526;-56
2023/02/02 11:23:24;;;;;;;8.60;0.60;;;;;;;4.58;87.13;99907.91;106587;1250;25497;-54
2023/02/02 11:26:04;;;;;;;4.00;0.70;;;;;;;4.62;86.22;99914.09;106623;1274;25266;-67
2023/02/02 11:28:37;;;;;;;4.00;0.30;;;;;;;4.65;85.94;99913.34;106745;1273;25870;-57
2023/02/02 11:31:09;;;;;;;5.20;0.50;;;;;;;4.68;85.91;99920.60;106737;1274;22992;-58
2023/02/02 11:33:40;;;;;;;8.50;0.50;;;;;;;4.70;85.42;99918.45;106585;1270;22530;-58
2023/02/02 11:36:21;;;;;;;2.90;0.50;;;;;;;4.72;85.83;99914.52;106539;1274;25335;-59
2023/02/02 11:39:16;;;;;;;6.60;0.70;;;;;;;4.75;84.85;99923.82;106568;1271;24238;-61
2023/02/02 11:41:47;;;;;;;5.40;0.40;;;;;;;4.81;86.36;99922.77;106661;1274;22525;-60
2023/02/02 11:44:26;;;;;;;7.20;0.60;;;;;;;4.86;85.85;99922.16;106570;1274;23170;-60
2023/02/02 11:46:57;;;;;;;3.70;0.40;;;;;;;4.91;84.79;99923.35;106743;1251;24209;-59
2023/02/02 11:49:28;;;;;;;6.10;0.50;;;;;;;4.92;83.34;99922.81;106963;1262;22562;-60
2023/02/02 11:52:06;;;;;;;3.20;0.40;;;;;;;4.99;83.25;99929.73;106803;1274;24146;-60
2023/02/02 11:54:39;;;;;;;15.70;0.80;;;;;;;5.09;84.00;99927.23;106707;1264;22526;-60
2023/02/02 11:57:16;;;;;;;1.80;0.30;;;;;;;5.20;83.36;99928.42;106652;1268;22707;-59
2023/02/02 11:59:49;;;;;;;3.50;0.40;;;;;;;5.28;83.18;99935.85;106759;1275;25473;-58
2023/02/02 12:02:29;;;;;;;2.50;0.30;;;;;;;5.35;83.61;99932.38;106742;1260;22523;-58
2023/02/02 12:08:09;;;;;;;5.90;0.60;;;;;;;5.39;83.68;99939.97;102834;1312;546407;-59
2023/02/02 12:10:47;;;;;;;2.30;0.40;;;;;;;5.37;82.75;99945.67;105785;1288;25356;-59
2023/02/02 12:13:28;;;;;;;9.20;0.60;;;;;;;5.36;83.22;99950.59;105743;1288;25375;-59
2023/02/02 12:16:10;;;;;;;5.40;0.50;;;;;;;5.36;83.16;99951.89;105718;1287;23028;-60
2023/02/02 12:18:51;;;;;;;7.30;0.60;;;;;;;5.34;83.10;99950.73;105750;1274;24315;-59